CheckWX is a tool to help pilots better visualize weather data.  It is not intended as a substitute for an official pre-flight weather briefing.

19:12:11 UTC

KFTY TAF
Fulton County-Brown Field Airport
Atlanta, Georgia, USA
KFTY 201735Z 2018/2118 12004KT P6SM SCT035 FM201900 17005KT P6SM VCSH BKN035 TEMPO 2021/2101 VRB15G25KT 4SM TSRA OVC030CB FM210100 21004KT P6SM SCT250 FM211400 27005KT P6SM SCT035 SCT250

Aug-20@
18:00 UTC

Aug-20 @ 18:00 UTC

Aug-20@
19:00 UTC

Aug-20 @ 19:00 UTC

KFTY 201735Z 2018/2118 12004KT P6SM SCT035

Expired

Wind
  • 120° at 4 KTS
Cloud Levels
  • Scattered at 3,500' AGL

Aug-20@
19:00 UTC

Aug-20 @ 19:00 UTC

Aug-21@
01:00 UTC

Aug-21 @ 01:00 UTC

FM201900 17005KT P6SM VCSH BKN035

From

From Standard forecast or significant change

Wind
  • 170° at 5 KTS
Cloud Levels
  • Broken at 3,500' AGL

Aug-20@
21:00 UTC

Aug-20 @ 21:00 UTC

Aug-21@
01:00 UTC

Aug-21 @ 01:00 UTC

TEMPO 2021/2101 VRB15G25KT 4SM TSRA OVC030CB

Temporary

Temporary Changes expected for less than half the time period

Wind
  • Variable at 15 KTS
  • {Gusting to 25 KTS
Conditions
Thunderstorm, Rain
Cloud Levels
  • Overcast at 3,000' AGL

Aug-21@
01:00 UTC

Aug-21 @ 01:00 UTC

Aug-21@
14:00 UTC

Aug-21 @ 14:00 UTC

FM210100 21004KT P6SM SCT250

From

From Standard forecast or significant change

Wind
  • 210° at 4 KTS
Cloud Levels
  • Scattered at 25,000' AGL

Aug-21@
14:00 UTC

Aug-21 @ 14:00 UTC

Aug-21@
18:00 UTC

Aug-21 @ 18:00 UTC

FM211400 27005KT P6SM SCT035 SCT250

From

From Standard forecast or significant change

Wind
  • 270° at 5 KTS
Cloud Levels
  • Scattered at 3,500' AGL
  • Scattered at 25,000' AGL